sensor_id;sensor_type;location;lat;lon;timestamp;temperature;humidity
39401;DHT22;54391;50.000;7.360;2022-07-23T00:01:08;18.40;60.00
39401;DHT22;54391;50.000;7.360;2022-07-23T00:03:35;18.40;59.30
39401;DHT22;54391;50.000;7.360;2022-07-23T00:06:02;18.40;60.20
39401;DHT22;54391;50.000;7.360;2022-07-23T00:08:29;18.50;58.20
39401;DHT22;54391;50.000;7.360;2022-07-23T00:10:58;18.50;58.70
39401;DHT22;54391;50.000;7.360;2022-07-23T00:13:28;18.60;58.10
39401;DHT22;54391;50.000;7.360;2022-07-23T00:15:55;18.50;57.80
39401;DHT22;54391;50.000;7.360;2022-07-23T00:18:23;18.50;56.80
39401;DHT22;54391;50.000;7.360;2022-07-23T00:20:51;18.40;57.40
39401;DHT22;54391;50.000;7.360;2022-07-23T00:23:18;18.30;58.00
39401;DHT22;54391;50.000;7.360;2022-07-23T00:25:45;18.20;58.80
39401;DHT22;54391;50.000;7.360;2022-07-23T00:28:14;18.20;58.60
39401;DHT22;54391;50.000;7.360;2022-07-23T00:30:42;18.20;59.10
39401;DHT22;54391;50.000;7.360;2022-07-23T00:33:09;18.30;59.00
39401;DHT22;54391;50.000;7.360;2022-07-23T00:35:39;18.30;58.10
39401;DHT22;54391;50.000;7.360;2022-07-23T00:38:08;18.30;58.40
39401;DHT22;54391;50.000;7.360;2022-07-23T00:40:37;18.30;58.90
39401;DHT22;54391;50.000;7.360;2022-07-23T00:43:04;18.40;58.50
39401;DHT22;54391;50.000;7.360;2022-07-23T00:45:33;18.30;58.30
39401;DHT22;54391;50.000;7.360;2022-07-23T00:48:01;18.10;58.00
39401;DHT22;54391;50.000;7.360;2022-07-23T00:50:29;18.10;58.60
39401;DHT22;54391;50.000;7.360;2022-07-23T00:52:57;18.10;61.00
39401;DHT22;54391;50.000;7.360;2022-07-23T00:55:24;16.50;66.70
39401;DHT22;54391;50.000;7.360;2022-07-23T00:57:53;17.80;72.10
39401;DHT22;54391;50.000;7.360;2022-07-23T01:00:21;17.80;73.40
39401;DHT22;54391;50.000;7.360;2022-07-23T01:02:51;17.70;75.20
39401;DHT22;54391;50.000;7.360;2022-07-23T01:05:18;17.70;76.70
39401;DHT22;54391;50.000;7.360;2022-07-23T01:07:48;17.60;75.60
39401;DHT22;54391;50.000;7.360;2022-07-23T01:10:16;17.50;76.00
39401;DHT22;54391;50.000;7.360;2022-07-23T01:12:59;17.50;80.10
39401;DHT22;54391;50.000;7.360;2022-07-23T01:15:27;17.40;78.10
39401;DHT22;54391;50.000;7.360;2022-07-23T01:17:55;17.40;79.60
39401;DHT22;54391;50.000;7.360;2022-07-23T01:20:23;17.40;80.50
39401;DHT22;54391;50.000;7.360;2022-07-23T01:22:53;17.60;80.10
39401;DHT22;54391;50.000;7.360;2022-07-23T01:25:21;17.40;78.20
39401;DHT22;54391;50.000;7.360;2022-07-23T01:27:55;17.30;77.50
39401;DHT22;54391;50.000;7.360;2022-07-23T01:30:23;17.30;78.50
39401;DHT22;54391;50.000;7.360;2022-07-23T01:32:50;17.20;76.90
39401;DHT22;54391;50.000;7.360;2022-07-23T01:35:18;17.20;77.90
39401;DHT22;54391;50.000;7.360;2022-07-23T01:37:46;17.10;74.30
39401;DHT22;54391;50.000;7.360;2022-07-23T01:40:16;17.10;75.70
39401;DHT22;54391;50.000;7.360;2022-07-23T01:42:43;17.20;75.90
39401;DHT22;54391;50.000;7.360;2022-07-23T01:45:12;17.20;73.20
39401;DHT22;54391;50.000;7.360;2022-07-23T01:47:44;17.10;74.10
39401;DHT22;54391;50.000;7.360;2022-07-23T01:50:11;17.10;74.70
39401;DHT22;54391;50.000;7.360;2022-07-23T01:52:44;17.20;72.90
39401;DHT22;54391;50.000;7.360;2022-07-23T01:55:12;17.20;72.90
39401;DHT22;54391;50.000;7.360;2022-07-23T01:57:43;17.20;73.00
39401;DHT22;54391;50.000;7.360;2022-07-23T02:00:12;17.00;72.50
39401;DHT22;54391;50.000;7.360;2022-07-23T02:02:40;17.10;73.30
39401;DHT22;54391;50.000;7.360;2022-07-23T02:05:08;17.00;73.90
39401;DHT22;54391;50.000;7.360;2022-07-23T02:07:36;16.90;74.90
39401;DHT22;54391;50.000;7.360;2022-07-23T02:10:05;16.90;74.00
39401;DHT22;54391;50.000;7.360;2022-07-23T02:12:32;17.30;75.30
39401;DHT22;54391;50.000;7.360;2022-07-23T02:15:02;16.70;76.30
39401;DHT22;54391;50.000;7.360;2022-07-23T02:17:29;16.70;73.40
39401;DHT22;54391;50.000;7.360;2022-07-23T02:19:57;16.70;73.70
39401;DHT22;54391;50.000;7.360;2022-07-23T02:22:24;16.70;74.10
39401;DHT22;54391;50.000;7.360;2022-07-23T02:24:51;16.70;72.80
39401;DHT22;54391;50.000;7.360;2022-07-23T02:27:19;16.70;73.80
39401;DHT22;54391;50.000;7.360;2022-07-23T02:29:47;16.70;73.10
39401;DHT22;54391;50.000;7.360;2022-07-23T02:32:16;16.60;74.00
39401;DHT22;54391;50.000;7.360;2022-07-23T02:34:44;16.50;75.50
39401;DHT22;54391;50.000;7.360;2022-07-23T02:37:11;16.50;75.80
39401;DHT22;54391;50.000;7.360;2022-07-23T02:39:39;16.60;73.70
39401;DHT22;54391;50.000;7.360;2022-07-23T02:42:06;16.40;75.10
39401;DHT22;54391;50.000;7.360;2022-07-23T02:44:34;16.40;74.40
39401;DHT22;54391;50.000;7.360;2022-07-23T02:47:02;16.40;72.60
39401;DHT22;54391;50.000;7.360;2022-07-23T02:49:31;16.40;72.20
39401;DHT22;54391;50.000;7.360;2022-07-23T02:52:03;16.30;73.10
39401;DHT22;54391;50.000;7.360;2022-07-23T02:54:30;16.30;74.10
39401;DHT22;54391;50.000;7.360;2022-07-23T02:56:58;16.20;75.30
39401;DHT22;54391;50.000;7.360;2022-07-23T02:59:26;16.10;76.30
39401;DHT22;54391;50.000;7.360;2022-07-23T03:01:53;16.10;76.30
39401;DHT22;54391;50.000;7.360;2022-07-23T03:04:21;16.10;77.10
39401;DHT22;54391;50.000;7.360;2022-07-23T03:06:50;16.20;75.60
39401;DHT22;54391;50.000;7.360;2022-07-23T03:09:18;16.20;76.60
39401;DHT22;54391;50.000;7.360;2022-07-23T03:11:45;16.00;76.30
39401;DHT22;54391;50.000;7.360;2022-07-23T03:14:13;16.20;75.80
39401;DHT22;54391;50.000;7.360;2022-07-23T03:16:42;16.10;75.20
39401;DHT22;54391;50.000;7.360;2022-07-23T03:19:10;16.20;74.20
39401;DHT22;54391;50.000;7.360;2022-07-23T03:21:37;16.20;74.60
39401;DHT22;54391;50.000;7.360;2022-07-23T03:24:08;16.20;74.00
39401;DHT22;54391;50.000;7.360;2022-07-23T03:26:36;16.10;75.00
39401;DHT22;54391;50.000;7.360;2022-07-23T03:29:03;16.10;74.40
39401;DHT22;54391;50.000;7.360;2022-07-23T03:31:31;16.10;74.50
39401;DHT22;54391;50.000;7.360;2022-07-23T03:33:58;16.10;75.60
39401;DHT22;54391;50.000;7.360;2022-07-23T03:36:28;16.00;75.80
39401;DHT22;54391;50.000;7.360;2022-07-23T03:38:56;16.00;75.00
39401;DHT22;54391;50.000;7.360;2022-07-23T03:41:26;15.90;75.70
39401;DHT22;54391;50.000;7.360;2022-07-23T03:43:53;15.90;76.60
39401;DHT22;54391;50.000;7.360;2022-07-23T03:46:21;15.90;76.70
39401;DHT22;54391;50.000;7.360;2022-07-23T03:48:48;15.90;75.30
39401;DHT22;54391;50.000;7.360;2022-07-23T03:51:15;15.80;75.60
39401;DHT22;54391;50.000;7.360;2022-07-23T03:53:43;15.80;75.40
39401;DHT22;54391;50.000;7.360;2022-07-23T03:56:10;15.80;75.50
39401;DHT22;54391;50.000;7.360;2022-07-23T03:58:39;15.80;76.00
39401;DHT22;54391;50.000;7.360;2022-07-23T04:01:06;15.80;76.50
39401;DHT22;54391;50.000;7.360;2022-07-23T04:03:34;15.80;76.50
39401;DHT22;54391;50.000;7.360;2022-07-23T04:06:01;15.70;75.20
39401;DHT22;54391;50.000;7.360;2022-07-23T04:08:30;15.70;75.30
39401;DHT22;54391;50.000;7.360;2022-07-23T04:10:59;15.70;76.20
39401;DHT22;54391;50.000;7.360;2022-07-23T04:13:28;15.70;74.80
39401;DHT22;54391;50.000;7.360;2022-07-23T04:15:57;15.80;74.10
39401;DHT22;54391;50.000;7.360;2022-07-23T04:18:24;15.80;74.50
39401;DHT22;54391;50.000;7.360;2022-07-23T04:20:57;15.80;74.20
39401;DHT22;54391;50.000;7.360;2022-07-23T04:23:25;15.90;72.80
39401;DHT22;54391;50.000;7.360;2022-07-23T04:25:53;15.90;73.80
39401;DHT22;54391;50.000;7.360;2022-07-23T04:28:20;16.10;71.20
39401;DHT22;54391;50.000;7.360;2022-07-23T04:30:48;16.10;71.70
39401;DHT22;54391;50.000;7.360;2022-07-23T04:33:18;16.10;72.30
39401;DHT22;54391;50.000;7.360;2022-07-23T04:35:48;16.10;70.10
39401;DHT22;54391;50.000;7.360;2022-07-23T04:38:19;16.20;68.30
39401;DHT22;54391;50.000;7.360;2022-07-23T04:40:49;16.30;69.10
39401;DHT22;54391;50.000;7.360;2022-07-23T04:43:16;16.40;68.40
39401;DHT22;54391;50.000;7.360;2022-07-23T04:45:46;16.30;66.80
39401;DHT22;54391;50.000;7.360;2022-07-23T04:48:14;16.40;66.00
39401;DHT22;54391;50.000;7.360;2022-07-23T04:50:43;16.60;66.30
39401;DHT22;54391;50.000;7.360;2022-07-23T04:53:22;16.50;64.90
39401;DHT22;54391;50.000;7.360;2022-07-23T04:55:52;16.50;65.70
39401;DHT22;54391;50.000;7.360;2022-07-23T04:58:21;16.50;66.00
39401;DHT22;54391;50.000;7.360;2022-07-23T05:03:17;16.60;64.90
39401;DHT22;54391;50.000;7.360;2022-07-23T05:05:48;16.60;64.80
39401;DHT22;54391;50.000;7.360;2022-07-23T05:08:17;16.70;63.30
39401;DHT22;54391;50.000;7.360;2022-07-23T05:10:50;16.70;64.30
39401;DHT22;54391;50.000;7.360;2022-07-23T05:13:19;16.60;65.60
39401;DHT22;54391;50.000;7.360;2022-07-23T05:15:46;16.80;63.10
39401;DHT22;54391;50.000;7.360;2022-07-23T05:18:14;16.80;61.80
39401;DHT22;54391;50.000;7.360;2022-07-23T05:20:41;16.80;62.70
39401;DHT22;54391;50.000;7.360;2022-07-23T05:23:12;17.00;61.50
39401;DHT22;54391;50.000;7.360;2022-07-23T05:25:41;17.10;61.00
39401;DHT22;54391;50.000;7.360;2022-07-23T05:28:08;17.20;58.10
39401;DHT22;54391;50.000;7.360;2022-07-23T05:30:36;17.30;59.10
39401;DHT22;54391;50.000;7.360;2022-07-23T05:33:06;17.30;57.70
39401;DHT22;54391;50.000;7.360;2022-07-23T05:35:34;17.30;57.10
39401;DHT22;54391;50.000;7.360;2022-07-23T05:38:29;17.20;56.40
39401;DHT22;54391;50.000;7.360;2022-07-23T05:40:59;17.30;57.20
39401;DHT22;54391;50.000;7.360;2022-07-23T05:43:29;17.70;55.50
39401;DHT22;54391;50.000;7.360;2022-07-23T05:45:59;17.80;55.10
39401;DHT22;54391;50.000;7.360;2022-07-23T05:48:27;18.50;47.90
39401;DHT22;54391;50.000;7.360;2022-07-23T05:51:02;18.50;48.30
39401;DHT22;54391;50.000;7.360;2022-07-23T05:53:34;18.80;45.50
39401;DHT22;54391;50.000;7.360;2022-07-23T05:56:09;19.10;42.20
39401;DHT22;54391;50.000;7.360;2022-07-23T05:58:37;19.30;39.10
39401;DHT22;54391;50.000;7.360;2022-07-23T06:01:04;19.20;40.70
39401;DHT22;54391;50.000;7.360;2022-07-23T06:03:40;19.30;37.80
39401;DHT22;54391;50.000;7.360;2022-07-23T06:06:07;19.10;40.50
39401;DHT22;54391;50.000;7.360;2022-07-23T06:08:37;18.90;40.50
39401;DHT22;54391;50.000;7.360;2022-07-23T06:11:07;18.90;42.60
39401;DHT22;54391;50.000;7.360;2022-07-23T06:13:35;18.90;41.60
39401;DHT22;54391;50.000;7.360;2022-07-23T06:16:03;19.50;40.00
39401;DHT22;54391;50.000;7.360;2022-07-23T06:18:31;19.80;37.40
39401;DHT22;54391;50.000;7.360;2022-07-23T06:33:33;20.80;28.70
39401;DHT22;54391;50.000;7.360;2022-07-23T06:36:00;21.90;25.00
39401;DHT22;54391;50.000;7.360;2022-07-23T06:38:28;22.50;19.30
39401;DHT22;54391;50.000;7.360;2022-07-23T06:40:56;21.90;20.70
39401;DHT22;54391;50.000;7.360;2022-07-23T06:43:25;21.90;20.50
39401;DHT22;54391;50.000;7.360;2022-07-23T06:45:54;22.30;19.20
39401;DHT22;54391;50.000;7.360;2022-07-23T06:48:22;23.30;14.90
39401;DHT22;54391;50.000;7.360;2022-07-23T06:50:50;23.50;15.10
39401;DHT22;54391;50.000;7.360;2022-07-23T06:55:49;24.20;12.40
39401;DHT22;54391;50.000;7.360;2022-07-23T06:58:16;23.80;12.00
39401;DHT22;54391;50.000;7.360;2022-07-23T07:00:46;23.80;11.20
39401;DHT22;54391;50.000;7.360;2022-07-23T07:03:14;24.50;9.50
39401;DHT22;54391;50.000;7.360;2022-07-23T07:05:43;24.50;9.60
39401;DHT22;54391;50.000;7.360;2022-07-23T07:08:10;24.30;9.30
39401;DHT22;54391;50.000;7.360;2022-07-23T07:10:38;24.10;9.20
39401;DHT22;54391;50.000;7.360;2022-07-23T07:13:05;24.00;10.30
39401;DHT22;54391;50.000;7.360;2022-07-23T07:15:32;24.00;11.20
39401;DHT22;54391;50.000;7.360;2022-07-23T07:18:01;24.20;9.80
39401;DHT22;54391;50.000;7.360;2022-07-23T07:20:29;24.30;9.60
39401;DHT22;54391;50.000;7.360;2022-07-23T07:22:56;24.10;10.40
39401;DHT22;54391;50.000;7.360;2022-07-23T07:25:24;23.30;12.30
39401;DHT22;54391;50.000;7.360;2022-07-23T07:27:51;22.60;15.90
39401;DHT22;54391;50.000;7.360;2022-07-23T07:30:18;22.50;16.50
39401;DHT22;54391;50.000;7.360;2022-07-23T07:32:46;22.50;16.70
39401;DHT22;54391;50.000;7.360;2022-07-23T07:37:43;22.30;16.50
39401;DHT22;54391;50.000;7.360;2022-07-23T07:40:10;21.70;17.70
39401;DHT22;54391;50.000;7.360;2022-07-23T07:42:45;21.70;17.60
39401;DHT22;54391;50.000;7.360;2022-07-23T07:45:12;21.60;19.00
39401;DHT22;54391;50.000;7.360;2022-07-23T07:47:39;21.70;18.30
39401;DHT22;54391;50.000;7.360;2022-07-23T07:50:07;22.10;16.80
39401;DHT22;54391;50.000;7.360;2022-07-23T07:55:05;22.00;16.50
39401;DHT22;54391;50.000;7.360;2022-07-23T07:57:33;22.40;15.90
39401;DHT22;54391;50.000;7.360;2022-07-23T08:00:01;22.30;15.60
39401;DHT22;54391;50.000;7.360;2022-07-23T08:02:42;23.60;13.30
39401;DHT22;54391;50.000;7.360;2022-07-23T08:05:11;23.50;12.50
39401;DHT22;54391;50.000;7.360;2022-07-23T08:07:40;23.40;13.00
39401;DHT22;54391;50.000;7.360;2022-07-23T08:10:09;23.20;12.30
39401;DHT22;54391;50.000;7.360;2022-07-23T08:12:41;22.90;13.60
39401;DHT22;54391;50.000;7.360;2022-07-23T08:15:11;22.60;13.40
39401;DHT22;54391;50.000;7.360;2022-07-23T08:17:38;22.50;13.40
39401;DHT22;54391;50.000;7.360;2022-07-23T08:20:07;23.20;13.00
39401;DHT22;54391;50.000;7.360;2022-07-23T08:22:44;24.60;7.40
39401;DHT22;54391;50.000;7.360;2022-07-23T08:27:39;25.30;6.00
39401;DHT22;54391;50.000;7.360;2022-07-23T08:30:07;25.50;4.20
39401;DHT22;54391;50.000;7.360;2022-07-23T08:32:48;25.90;3.80
39401;DHT22;54391;50.000;7.360;2022-07-23T08:35:16;26.10;3.30
39401;DHT22;54391;50.000;7.360;2022-07-23T08:40:12;26.60;2.00
39401;DHT22;54391;50.000;7.360;2022-07-23T08:45:08;27.10;1.10
39401;DHT22;54391;50.000;7.360;2022-07-23T08:47:37;27.40;1.00
39401;DHT22;54391;50.000;7.360;2022-07-23T08:50:07;27.80;1.00
39401;DHT22;54391;50.000;7.360;2022-07-23T08:52:36;27.40;1.00
39401;DHT22;54391;50.000;7.360;2022-07-23T08:55:07;27.70;1.00
39401;DHT22;54391;50.000;7.360;2022-07-23T08:57:35;27.50;1.00
39401;DHT22;54391;50.000;7.360;2022-07-23T09:00:04;27.30;1.00
39401;DHT22;54391;50.000;7.360;2022-07-23T09:02:38;27.20;1.00
39401;DHT22;54391;50.000;7.360;2022-07-23T09:05:08;27.80;1.00
39401;DHT22;54391;50.000;7.360;2022-07-23T09:07:36;27.30;1.00
39401;DHT22;54391;50.000;7.360;2022-07-23T09:10:10;27.30;1.00
39401;DHT22;54391;50.000;7.360;2022-07-23T09:12:38;27.30;1.00
39401;DHT22;54391;50.000;7.360;2022-07-23T09:15:07;27.60;1.00
39401;DHT22;54391;50.000;7.360;2022-07-23T09:17:39;28.20;1.00
39401;DHT22;54391;50.000;7.360;2022-07-23T09:20:12;28.70;1.00
39401;DHT22;54391;50.000;7.360;2022-07-23T09:22:41;28.80;1.00
39401;DHT22;54391;50.000;7.360;2022-07-23T09:25:15;28.90;1.00
39401;DHT22;54391;50.000;7.360;2022-07-23T09:27:50;28.90;1.00
39401;DHT22;54391;50.000;7.360;2022-07-23T09:30:20;28.90;1.00
39401;DHT22;54391;50.000;7.360;2022-07-23T09:33:07;29.40;1.00
39401;DHT22;54391;50.000;7.360;2022-07-23T09:35:46;29.30;1.00
39401;DHT22;54391;50.000;7.360;2022-07-23T09:38:14;29.10;1.00
39401;DHT22;54391;50.000;7.360;2022-07-23T09:40:43;29.70;1.00
39401;DHT22;54391;50.000;7.360;2022-07-23T09:43:11;29.70;1.00
39401;DHT22;54391;50.000;7.360;2022-07-23T09:45:39;29.50;1.00
39401;DHT22;54391;50.000;7.360;2022-07-23T09:48:14;29.40;1.00
39401;DHT22;54391;50.000;7.360;2022-07-23T09:50:43;29.50;1.00
39401;DHT22;54391;50.000;7.360;2022-07-23T09:53:24;29.40;1.00
39401;DHT22;54391;50.000;7.360;2022-07-23T09:55:54;29.30;1.00
39401;DHT22;54391;50.000;7.360;2022-07-23T09:58:25;30.00;1.00
39401;DHT22;54391;50.000;7.360;2022-07-23T10:00:53;29.80;1.00
39401;DHT22;54391;50.000;7.360;2022-07-23T10:03:21;30.10;1.00
39401;DHT22;54391;50.000;7.360;2022-07-23T10:06:09;30.20;1.00
39401;DHT22;54391;50.000;7.360;2022-07-23T10:08:56;30.20;1.00
39401;DHT22;54391;50.000;7.360;2022-07-23T10:11:45;30.30;1.00
39401;DHT22;54391;50.000;7.360;2022-07-23T10:14:32;30.10;1.00
39401;DHT22;54391;50.000;7.360;2022-07-23T10:17:03;28.30;1.00
39401;DHT22;54391;50.000;7.360;2022-07-23T10:19:31;28.60;1.00
39401;DHT22;54391;50.000;7.360;2022-07-23T10:22:00;29.20;1.00
39401;DHT22;54391;50.000;7.360;2022-07-23T10:24:45;29.60;1.00
39401;DHT22;54391;50.000;7.360;2022-07-23T10:27:20;28.90;1.00
39401;DHT22;54391;50.000;7.360;2022-07-23T10:29:54;29.70;1.00
39401;DHT22;54391;50.000;7.360;2022-07-23T10:32:30;30.10;1.00
39401;DHT22;54391;50.000;7.360;2022-07-23T10:35:09;30.20;1.00
39401;DHT22;54391;50.000;7.360;2022-07-23T10:37:39;30.20;1.00
39401;DHT22;54391;50.000;7.360;2022-07-23T10:40:10;29.70;1.00
39401;DHT22;54391;50.000;7.360;2022-07-23T10:42:39;30.70;1.00
39401;DHT22;54391;50.000;7.360;2022-07-23T10:45:31;30.70;1.00
39401;DHT22;54391;50.000;7.360;2022-07-23T10:48:14;31.20;1.00
39401;DHT22;54391;50.000;7.360;2022-07-23T10:50:42;31.20;1.00
39401;DHT22;54391;50.000;7.360;2022-07-23T10:53:12;30.70;1.00
39401;DHT22;54391;50.000;7.360;2022-07-23T10:55:44;30.80;1.00
39401;DHT22;54391;50.000;7.360;2022-07-23T10:58:22;30.60;1.00
39401;DHT22;54391;50.000;7.360;2022-07-23T11:00:50;30.20;1.00
39401;DHT22;54391;50.000;7.360;2022-07-23T11:03:34;30.30;1.00
39401;DHT22;54391;50.000;7.360;2022-07-23T11:06:04;30.40;1.00
39401;DHT22;54391;50.000;7.360;2022-07-23T11:08:33;29.80;1.00
39401;DHT22;54391;50.000;7.360;2022-07-23T11:11:11;29.90;1.00
39401;DHT22;54391;50.000;7.360;2022-07-23T11:13:42;30.00;1.00
39401;DHT22;54391;50.000;7.360;2022-07-23T11:16:22;29.90;1.00
39401;DHT22;54391;50.000;7.360;2022-07-23T11:19:14;29.50;1.00
39401;DHT22;54391;50.000;7.360;2022-07-23T11:22:04;29.70;1.00
39401;DHT22;54391;50.000;7.360;2022-07-23T11:24:50;30.20;1.00
39401;DHT22;54391;50.000;7.360;2022-07-23T11:27:36;30.40;1.00
39401;DHT22;54391;50.000;7.360;2022-07-23T11:30:07;30.10;1.00
39401;DHT22;54391;50.000;7.360;2022-07-23T11:32:37;30.30;1.00
39401;DHT22;54391;50.000;7.360;2022-07-23T11:35:27;29.80;1.00
39401;DHT22;54391;50.000;7.360;2022-07-23T11:38:05;29.60;1.00
39401;DHT22;54391;50.000;7.360;2022-07-23T11:40:33;29.50;1.00
39401;DHT22;54391;50.000;7.360;2022-07-23T11:43:02;29.90;1.00
39401;DHT22;54391;50.000;7.360;2022-07-23T11:45:36;29.60;1.00
39401;DHT22;54391;50.000;7.360;2022-07-23T11:48:05;29.10;1.00
39401;DHT22;54391;50.000;7.360;2022-07-23T11:50:34;29.20;1.00
39401;DHT22;54391;50.000;7.360;2022-07-23T11:53:02;29.20;1.00
39401;DHT22;54391;50.000;7.360;2022-07-23T11:55:30;29.60;1.00
39401;DHT22;54391;50.000;7.360;2022-07-23T11:57:59;29.40;1.00
39401;DHT22;54391;50.000;7.360;2022-07-23T12:00:29;29.40;1.00
39401;DHT22;54391;50.000;7.360;2022-07-23T12:03:00;28.40;1.00
39401;DHT22;54391;50.000;7.360;2022-07-23T12:05:30;28.60;1.00
39401;DHT22;54391;50.000;7.360;2022-07-23T12:08:00;28.50;1.00
39401;DHT22;54391;50.000;7.360;2022-07-23T12:10:33;28.60;1.00
39401;DHT22;54391;50.000;7.360;2022-07-23T12:13:02;28.90;1.00
39401;DHT22;54391;50.000;7.360;2022-07-23T12:15:32;28.80;1.00
39401;DHT22;54391;50.000;7.360;2022-07-23T12:18:01;28.90;1.00
39401;DHT22;54391;50.000;7.360;2022-07-23T12:20:31;28.90;1.00
39401;DHT22;54391;50.000;7.360;2022-07-23T12:23:00;28.80;1.00
39401;DHT22;54391;50.000;7.360;2022-07-23T12:25:30;28.80;1.00
39401;DHT22;54391;50.000;7.360;2022-07-23T12:28:00;28.70;1.00
39401;DHT22;54391;50.000;7.360;2022-07-23T12:30:31;28.40;1.00
39401;DHT22;54391;50.000;7.360;2022-07-23T12:33:01;28.40;1.00
39401;DHT22;54391;50.000;7.360;2022-07-23T12:35:37;28.40;1.00
39401;DHT22;54391;50.000;7.360;2022-07-23T12:38:08;28.30;1.00
39401;DHT22;54391;50.000;7.360;2022-07-23T12:40:37;28.20;1.00
39401;DHT22;54391;50.000;7.360;2022-07-23T12:43:10;27.90;1.00
39401;DHT22;54391;50.000;7.360;2022-07-23T12:45:44;27.60;1.00
39401;DHT22;54391;50.000;7.360;2022-07-23T12:48:18;27.80;1.00
39401;DHT22;54391;50.000;7.360;2022-07-23T12:50:51;27.90;1.00
39401;DHT22;54391;50.000;7.360;2022-07-23T12:53:21;27.70;1.00
39401;DHT22;54391;50.000;7.360;2022-07-23T12:55:50;27.60;1.00
39401;DHT22;54391;50.000;7.360;2022-07-23T12:58:18;27.70;1.00
39401;DHT22;54391;50.000;7.360;2022-07-23T13:01:04;27.90;1.00
39401;DHT22;54391;50.000;7.360;2022-07-23T13:03:37;27.70;1.00
39401;DHT22;54391;50.000;7.360;2022-07-23T13:06:07;27.60;1.00
39401;DHT22;54391;50.000;7.360;2022-07-23T13:08:37;27.40;1.00
39401;DHT22;54391;50.000;7.360;2022-07-23T13:11:06;27.50;1.00
39401;DHT22;54391;50.000;7.360;2022-07-23T13:13:34;27.80;1.00
39401;DHT22;54391;50.000;7.360;2022-07-23T13:16:02;28.00;1.00
39401;DHT22;54391;50.000;7.360;2022-07-23T13:18:30;27.70;1.00
39401;DHT22;54391;50.000;7.360;2022-07-23T13:23:26;26.20;1.00
39401;DHT22;54391;50.000;7.360;2022-07-23T13:25:54;27.60;1.00
39401;DHT22;54391;50.000;7.360;2022-07-23T13:28:22;27.50;1.00
39401;DHT22;54391;50.000;7.360;2022-07-23T13:30:51;27.40;1.00
39401;DHT22;54391;50.000;7.360;2022-07-23T13:33:19;27.40;1.00
39401;DHT22;54391;50.000;7.360;2022-07-23T13:35:48;27.20;1.00
39401;DHT22;54391;50.000;7.360;2022-07-23T13:40:46;27.30;1.00
39401;DHT22;54391;50.000;7.360;2022-07-23T13:43:16;27.10;1.00
39401;DHT22;54391;50.000;7.360;2022-07-23T13:45:44;27.10;1.00
39401;DHT22;54391;50.000;7.360;2022-07-23T13:48:12;27.20;1.00
39401;DHT22;54391;50.000;7.360;2022-07-23T13:50:41;27.00;1.00
39401;DHT22;54391;50.000;7.360;2022-07-23T13:53:10;27.00;1.00
39401;DHT22;54391;50.000;7.360;2022-07-23T13:55:40;27.00;1.00
39401;DHT22;54391;50.000;7.360;2022-07-23T13:58:09;27.50;1.00
39401;DHT22;54391;50.000;7.360;2022-07-23T14:00:38;27.50;1.00
39401;DHT22;54391;50.000;7.360;2022-07-23T14:03:06;27.50;1.00
39401;DHT22;54391;50.000;7.360;2022-07-23T14:05:34;27.10;1.00
39401;DHT22;54391;50.000;7.360;2022-07-23T14:08:01;27.40;1.00
39401;DHT22;54391;50.000;7.360;2022-07-23T14:12:57;27.20;1.00
39401;DHT22;54391;50.000;7.360;2022-07-23T14:15:26;27.50;1.00
39401;DHT22;54391;50.000;7.360;2022-07-23T14:17:54;27.60;1.00
39401;DHT22;54391;50.000;7.360;2022-07-23T14:20:22;27.60;1.00
39401;DHT22;54391;50.000;7.360;2022-07-23T14:22:49;27.70;1.00
39401;DHT22;54391;50.000;7.360;2022-07-23T14:25:17;27.50;1.00
39401;DHT22;54391;50.000;7.360;2022-07-23T14:27:45;27.40;1.00
39401;DHT22;54391;50.000;7.360;2022-07-23T14:30:14;27.40;1.00
39401;DHT22;54391;50.000;7.360;2022-07-23T14:32:41;27.30;1.00
39401;DHT22;54391;50.000;7.360;2022-07-23T14:35:09;27.00;1.00
39401;DHT22;54391;50.000;7.360;2022-07-23T14:37:36;26.90;1.00
39401;DHT22;54391;50.000;7.360;2022-07-23T14:40:06;26.90;1.00
39401;DHT22;54391;50.000;7.360;2022-07-23T14:42:34;26.90;1.00
39401;DHT22;54391;50.000;7.360;2022-07-23T14:45:02;27.00;1.00
39401;DHT22;54391;50.000;7.360;2022-07-23T14:47:32;27.00;1.00
39401;DHT22;54391;50.000;7.360;2022-07-23T14:49:59;26.80;1.00
39401;DHT22;54391;50.000;7.360;2022-07-23T14:52:27;27.00;1.00
39401;DHT22;54391;50.000;7.360;2022-07-23T14:54:55;27.40;1.00
39401;DHT22;54391;50.000;7.360;2022-07-23T14:57:22;27.60;1.00
39401;DHT22;54391;50.000;7.360;2022-07-23T14:59:49;27.60;1.00
39401;DHT22;54391;50.000;7.360;2022-07-23T15:02:17;27.60;1.00
39401;DHT22;54391;50.000;7.360;2022-07-23T15:04:45;27.50;1.00
39401;DHT22;54391;50.000;7.360;2022-07-23T15:07:13;27.10;1.00
39401;DHT22;54391;50.000;7.360;2022-07-23T15:09:40;27.10;1.00
39401;DHT22;54391;50.000;7.360;2022-07-23T15:12:07;26.90;1.00
39401;DHT22;54391;50.000;7.360;2022-07-23T15:14:34;26.90;1.00
39401;DHT22;54391;50.000;7.360;2022-07-23T15:17:02;27.10;1.00
39401;DHT22;54391;50.000;7.360;2022-07-23T15:19:29;26.70;1.00
39401;DHT22;54391;50.000;7.360;2022-07-23T15:21:58;26.80;1.00
39401;DHT22;54391;50.000;7.360;2022-07-23T15:24:27;26.60;1.00
39401;DHT22;54391;50.000;7.360;2022-07-23T15:26:55;26.70;1.00
39401;DHT22;54391;50.000;7.360;2022-07-23T15:29:22;26.90;1.00
39401;DHT22;54391;50.000;7.360;2022-07-23T15:31:49;27.10;1.00
39401;DHT22;54391;50.000;7.360;2022-07-23T15:34:17;27.20;1.00
39401;DHT22;54391;50.000;7.360;2022-07-23T15:36:44;27.30;1.00
39401;DHT22;54391;50.000;7.360;2022-07-23T15:39:13;27.40;1.00
39401;DHT22;54391;50.000;7.360;2022-07-23T15:41:40;27.30;1.00
39401;DHT22;54391;50.000;7.360;2022-07-23T15:44:07;27.50;1.00
39401;DHT22;54391;50.000;7.360;2022-07-23T15:46:35;27.50;1.00
39401;DHT22;54391;50.000;7.360;2022-07-23T15:49:02;27.10;1.00
39401;DHT22;54391;50.000;7.360;2022-07-23T15:51:30;27.00;1.00
39401;DHT22;54391;50.000;7.360;2022-07-23T15:53:57;26.70;1.00
39401;DHT22;54391;50.000;7.360;2022-07-23T15:56:26;26.60;1.00
39401;DHT22;54391;50.000;7.360;2022-07-23T15:58:53;26.60;1.00
39401;DHT22;54391;50.000;7.360;2022-07-23T16:01:20;26.70;1.00
39401;DHT22;54391;50.000;7.360;2022-07-23T16:03:49;26.80;1.00
39401;DHT22;54391;50.000;7.360;2022-07-23T16:06:16;26.90;1.00
39401;DHT22;54391;50.000;7.360;2022-07-23T16:08:44;26.80;1.00
39401;DHT22;54391;50.000;7.360;2022-07-23T16:11:11;26.70;1.00
39401;DHT22;54391;50.000;7.360;2022-07-23T16:16:08;26.50;1.00
39401;DHT22;54391;50.000;7.360;2022-07-23T16:18:35;26.20;1.00
39401;DHT22;54391;50.000;7.360;2022-07-23T16:21:03;26.10;1.00
39401;DHT22;54391;50.000;7.360;2022-07-23T16:23:31;26.00;1.00
39401;DHT22;54391;50.000;7.360;2022-07-23T16:25:59;26.20;1.00
39401;DHT22;54391;50.000;7.360;2022-07-23T16:28:28;28.30;1.00
39401;DHT22;54391;50.000;7.360;2022-07-23T16:30:56;26.30;1.00
39401;DHT22;54391;50.000;7.360;2022-07-23T16:33:25;26.10;1.00